Terminal Aerodrome Forecast
Issued by NWS Cleveland, OH

Home | Current Version | Previous Version | Graphics & Text | Print | Product List | Glossary On
Versions: 1 2 3 4 5 6 7 8 9 10 11 12 13 14 15 16 17 18 19 20 21 22 23 24
000
FTUS41 KCLE 210500
TAFYNG
TAF
KYNG 210529Z 2106/2206 25012G20KT 5SM -SHSN OVC025
      TEMPO 2106/2109 1 1/2SM -SHSN OVC012
     FM210900 28008KT P6SM -SHSN OVC050
     FM211300 26008KT P6SM BKN050
     FM212100 22006KT P6SM SCT050=

USA.gov is the U.S. government's official web portal to all federal, state and local government web resources and services.